createdAt,value
2023-01-09T00:00:57.156Z,95955.13
2023-01-09T00:03:23.583Z,96000.41
2023-01-09T00:05:50.071Z,95999.81
2023-01-09T00:08:16.555Z,95978.25
2023-01-09T00:10:42.965Z,95995.91
2023-01-09T00:13:14.109Z,96004.38
2023-01-09T00:15:41.278Z,95987.78
2023-01-09T00:18:16.508Z,95989.06
2023-01-09T00:20:42.988Z,95998.31
2023-01-09T00:23:09.615Z,95993.25
2023-01-09T00:25:36.756Z,95987.00
2023-01-09T00:28:03.422Z,95985.72
2023-01-09T00:30:29.909Z,95956.97
2023-01-09T00:32:56.649Z,95970.72
2023-01-09T00:35:25.183Z,95964.63
2023-01-09T00:37:51.825Z,95956.09
2023-01-09T00:40:19.597Z,95953.22
2023-01-09T00:42:51.284Z,95950.53
2023-01-09T00:47:52.727Z,95974.50
2023-01-09T00:50:23.149Z,95978.16
2023-01-09T00:52:51.456Z,95983.81
2023-01-09T00:55:18.116Z,95993.13
2023-01-09T00:57:44.753Z,95994.78
2023-01-09T01:00:12.850Z,96009.56
2023-01-09T01:02:39.306Z,96007.78
2023-01-09T01:05:25.266Z,96008.16
2023-01-09T01:07:52.331Z,96013.41
2023-01-09T01:10:24.517Z,96002.06
2023-01-09T01:12:51.802Z,96002.06
2023-01-09T01:15:19.490Z,95996.50
2023-01-09T01:17:48.316Z,95992.88
2023-01-09T01:20:19.881Z,95984.56
2023-01-09T01:22:46.882Z,95973.81
2023-01-09T01:25:15.165Z,95968.31
2023-01-09T01:27:41.584Z,95955.78
2023-01-09T01:30:11.436Z,95944.66
2023-01-09T01:32:39.502Z,95922.56
2023-01-09T01:35:07.624Z,95916.09
2023-01-09T01:37:35.930Z,95887.38
2023-01-09T01:40:03.107Z,95876.22
2023-01-09T01:42:29.857Z,95861.06
2023-01-09T01:44:58.378Z,95852.59
2023-01-09T01:47:52.623Z,95825.47
2023-01-09T01:50:19.383Z,95807.06
2023-01-09T01:52:52.098Z,95792.28
2023-01-09T01:55:19.502Z,95774.50
2023-01-09T01:57:49.582Z,95760.75
2023-01-09T02:00:18.309Z,95732.47
2023-01-09T02:02:47.763Z,95720.72
2023-01-09T02:05:22.819Z,95704.56
2023-01-09T02:07:49.428Z,95679.84
2023-01-09T02:10:16.228Z,95682.69
2023-01-09T02:12:42.881Z,95660.06
2023-01-09T02:15:13.717Z,95654.81
2023-01-09T02:18:07.650Z,95636.63
2023-01-09T02:20:43.481Z,95628.13
2023-01-09T02:23:29.378Z,95616.00
2023-01-09T02:26:23.892Z,95603.47
2023-01-09T02:29:40.985Z,95573.13
2023-01-09T02:32:35.593Z,95569.91
2023-01-09T02:35:26.496Z,95573.78
2023-01-09T02:38:11.794Z,95567.09
2023-01-09T02:40:53.455Z,95566.28
2023-01-09T02:43:24.201Z,95565.69
2023-01-09T02:45:50.622Z,95562.25
2023-01-09T02:48:17.140Z,95563.88
2023-01-09T02:51:09.153Z,95575.19
2023-01-09T02:53:56.416Z,95575.81
2023-01-09T02:56:30.090Z,95578.41
2023-01-09T02:59:18.331Z,95573.34
2023-01-09T03:02:04.188Z,95565.47
2023-01-09T03:04:44.047Z,95562.66
2023-01-09T03:07:45.570Z,95560.22
2023-01-09T03:10:22.119Z,95554.56
2023-01-09T03:12:52.451Z,95526.66
2023-01-09T03:15:24.299Z,95527.88
2023-01-09T03:17:51.484Z,95527.06
2023-01-09T03:20:22.168Z,95511.09
2023-01-09T03:23:04.270Z,95471.69
2023-01-09T03:25:31.960Z,95484.63
2023-01-09T03:28:01.219Z,95485.84
2023-01-09T03:30:29.687Z,95464.00
2023-01-09T03:32:57.493Z,95429.25
2023-01-09T03:35:24.865Z,95439.75
2023-01-09T03:37:51.971Z,95443.78
2023-01-09T03:40:19.878Z,95434.09
2023-01-09T03:42:46.981Z,95442.16
2023-01-09T03:45:13.928Z,95440.13
2023-01-09T03:47:40.629Z,95458.75
2023-01-09T03:50:07.774Z,95442.56
2023-01-09T03:52:37.476Z,95446.59
2023-01-09T03:55:04.258Z,95443.75
2023-01-09T03:57:30.747Z,95433.47
2023-01-09T03:59:57.164Z,95454.91
2023-01-09T04:02:23.671Z,95452.88
2023-01-09T04:04:50.198Z,95467.19
2023-01-09T04:07:16.605Z,95464.38
2023-01-09T04:09:43.029Z,95469.22
2023-01-09T04:12:09.684Z,95464.16
2023-01-09T04:14:44.885Z,95472.25
2023-01-09T04:17:11.446Z,95467.00
2023-01-09T04:19:39.303Z,95476.91
2023-01-09T04:22:05.719Z,95479.13
2023-01-09T04:24:32.471Z,95471.66
2023-01-09T04:26:59.169Z,95441.31
2023-01-09T04:29:25.645Z,95445.75
2023-01-09T04:31:52.029Z,95473.88
2023-01-09T04:34:18.590Z,95455.66
2023-01-09T04:36:44.999Z,95468.03
2023-01-09T04:39:11.512Z,95457.31
2023-01-09T04:41:52.967Z,95446.78
2023-01-09T04:44:28.074Z,95450.63
2023-01-09T04:46:56.458Z,95446.94
2023-01-09T04:49:23.405Z,95444.94
2023-01-09T04:51:49.870Z,95458.06
2023-01-09T04:54:16.924Z,95467.97
2023-01-09T04:56:48.002Z,95488.81
2023-01-09T04:59:14.828Z,95522.56
2023-01-09T05:01:41.671Z,95515.69
2023-01-09T05:04:08.745Z,95527.03
2023-01-09T05:06:35.526Z,95510.47
2023-01-09T05:09:02.007Z,95532.28
2023-01-09T05:11:28.614Z,95539.16
2023-01-09T05:13:55.070Z,95541.63
2023-01-09T05:16:22.937Z,95542.41
2023-01-09T05:18:49.420Z,95545.44
2023-01-09T05:21:16.628Z,95558.38
2023-01-09T05:23:43.110Z,95561.81
2023-01-09T05:26:09.550Z,95566.69
2023-01-09T05:28:35.956Z,95565.50
2023-01-09T05:31:02.738Z,95578.63
2023-01-09T05:33:29.586Z,95579.66
2023-01-09T05:35:56.579Z,95588.53
2023-01-09T05:38:23.143Z,95581.25
2023-01-09T05:40:53.404Z,95613.22
2023-01-09T05:43:19.822Z,95626.97
2023-01-09T05:45:46.482Z,95631.63
2023-01-09T05:48:12.922Z,95679.16
2023-01-09T05:50:39.383Z,95702.41
2023-01-09T05:53:06.695Z,95729.91
2023-01-09T05:55:34.157Z,95768.97
2023-01-09T05:58:00.753Z,95781.09
2023-01-09T06:00:27.388Z,95808.22
2023-01-09T06:02:56.613Z,95833.28
2023-01-09T06:05:23.207Z,95855.72
2023-01-09T06:07:49.643Z,95875.13
2023-01-09T06:10:17.102Z,95848.47
2023-01-09T06:12:48.425Z,95903.19
2023-01-09T06:15:18.108Z,95893.06
2023-01-09T06:17:44.559Z,95889.84
2023-01-09T06:20:11.932Z,95901.19
2023-01-09T06:22:38.435Z,95903.56
2023-01-09T06:25:05.712Z,95908.63
2023-01-09T06:27:32.228Z,95910.63
2023-01-09T06:30:02.482Z,95928.28
2023-01-09T06:32:28.911Z,95942.03
2023-01-09T06:34:55.395Z,95955.56
2023-01-09T06:37:21.909Z,95900.56
2023-01-09T06:39:48.407Z,95968.66
2023-01-09T06:42:14.891Z,95982.97
2023-01-09T06:44:41.638Z,95988.66
2023-01-09T06:47:08.152Z,95997.28
2023-01-09T06:49:35.098Z,95997.22
2023-01-09T06:52:05.477Z,96022.56
2023-01-09T06:54:32.745Z,96042.97
2023-01-09T06:56:59.633Z,96035.44
2023-01-09T06:59:26.307Z,96049.13
2023-01-09T07:01:53.263Z,96052.53
2023-01-09T07:04:22.442Z,96067.53
2023-01-09T07:06:49.488Z,96075.19
2023-01-09T07:09:15.985Z,96074.88
2023-01-09T07:11:42.757Z,96078.44
2023-01-09T07:14:09.364Z,96085.25
2023-01-09T07:16:35.814Z,96102.97
2023-01-09T07:19:02.235Z,96098.00
2023-01-09T07:21:28.749Z,96106.09
2023-01-09T07:23:55.180Z,96113.78
2023-01-09T07:26:22.470Z,96127.94
2023-01-09T07:28:48.881Z,96122.13
2023-01-09T07:31:15.374Z,96133.66
2023-01-09T07:33:41.836Z,96124.13
2023-01-09T07:36:11.347Z,96132.63
2023-01-09T07:38:37.918Z,96131.03
2023-01-09T07:41:04.487Z,96117.75
2023-01-09T07:43:31.263Z,96148.41
2023-01-09T07:45:57.849Z,96153.75
2023-01-09T07:48:24.279Z,96160.19
2023-01-09T07:50:50.721Z,96141.53
2023-01-09T07:53:17.113Z,96169.13
2023-01-09T07:55:44.729Z,96189.31
2023-01-09T07:58:11.240Z,96188.50
2023-01-09T08:00:38.024Z,96195.03
2023-01-09T08:03:05.326Z,96202.66
2023-01-09T08:05:31.857Z,96215.03
2023-01-09T08:07:58.278Z,96208.19
2023-01-09T08:10:24.806Z,96223.94
2023-01-09T08:12:51.763Z,96193.16
2023-01-09T08:15:18.192Z,96237.13
2023-01-09T08:17:46.196Z,96233.88
2023-01-09T08:20:15.496Z,96204.84
2023-01-09T08:22:43.503Z,96247.66
2023-01-09T08:25:12.390Z,96241.66
2023-01-09T08:27:39.516Z,96248.16
2023-01-09T08:30:06.660Z,96249.88
2023-01-09T08:32:33.364Z,96249.66
2023-01-09T08:34:59.895Z,96263.81
2023-01-09T08:37:26.378Z,96255.84
2023-01-09T08:39:53.399Z,96265.31
2023-01-09T08:42:39.503Z,96267.34
2023-01-09T08:45:29.847Z,96275.09
2023-01-09T08:47:59.643Z,96258.59
2023-01-09T08:50:26.156Z,96249.91
2023-01-09T08:52:52.811Z,96277.22
2023-01-09T08:55:19.599Z,96273.19
2023-01-09T08:57:52.906Z,96298.09
2023-01-09T09:00:23.634Z,96297.75
2023-01-09T09:02:54.815Z,96301.00
2023-01-09T09:05:22.757Z,96310.56
2023-01-09T09:07:50.531Z,96303.72
2023-01-09T09:10:17.860Z,96324.09
2023-01-09T09:12:44.683Z,96321.34
2023-01-09T09:15:25.823Z,96325.81
2023-01-09T09:18:00.979Z,96324.31
2023-01-09T09:20:38.793Z,96315.19
2023-01-09T09:23:06.563Z,96334.63
2023-01-09T09:25:33.029Z,96335.66
2023-01-09T09:28:01.161Z,96344.88
2023-01-09T09:30:30.955Z,96357.03
2023-01-09T09:32:57.379Z,96357.03
2023-01-09T09:35:24.940Z,96354.50
2023-01-09T09:38:00.545Z,96354.94
2023-01-09T09:40:42.659Z,96372.97
2023-01-09T09:43:47.999Z,96366.16
2023-01-09T09:46:34.862Z,96357.88
2023-01-09T09:49:14.892Z,96368.09
2023-01-09T09:51:50.066Z,96384.50
2023-01-09T09:54:25.766Z,96385.69
2023-01-09T09:56:56.671Z,96389.47
2023-01-09T09:59:27.181Z,96405.88
2023-01-09T10:02:06.102Z,96414.69
2023-01-09T10:04:35.467Z,96414.41
2023-01-09T10:07:06.161Z,96415.56
2023-01-09T10:09:45.048Z,96427.78
2023-01-09T10:12:17.297Z,96422.34
2023-01-09T10:14:43.796Z,96406.75
2023-01-09T10:17:25.606Z,96426.69
2023-01-09T10:19:52.256Z,96434.66
2023-01-09T10:22:46.597Z,96438.94
2023-01-09T10:25:21.341Z,96431.59
2023-01-09T10:28:06.948Z,96449.75
2023-01-09T10:30:46.050Z,96457.91
2023-01-09T10:33:18.203Z,96389.72
2023-01-09T10:36:05.892Z,96415.56
2023-01-09T10:38:38.956Z,96407.84
2023-01-09T10:41:25.001Z,96394.91
2023-01-09T10:44:00.648Z,96401.34
2023-01-09T10:46:59.851Z,96385.09
2023-01-09T10:49:26.792Z,96376.66
2023-01-09T10:52:00.737Z,96389.88
2023-01-09T10:54:29.448Z,96388.91
2023-01-09T10:57:00.436Z,96391.06
2023-01-09T10:59:27.090Z,96397.06
2023-01-09T11:01:53.792Z,96396.34
2023-01-09T11:04:32.500Z,96377.16
2023-01-09T11:07:02.960Z,96360.38
2023-01-09T11:09:59.675Z,96380.59
2023-01-09T11:12:31.430Z,96381.94
2023-01-09T11:15:28.947Z,96396.41
2023-01-09T11:18:16.655Z,96401.38
2023-01-09T11:20:43.190Z,96414.97
2023-01-09T11:23:23.384Z,96411.19
2023-01-09T11:25:55.018Z,96413.44
2023-01-09T11:28:23.085Z,96418.59
2023-01-09T11:30:57.031Z,96435.28
2023-01-09T11:33:26.385Z,96436.44
2023-01-09T11:36:04.019Z,96426.50
2023-01-09T11:38:33.524Z,96424.19
2023-01-09T11:41:04.743Z,96429.56
2023-01-09T11:43:35.466Z,96442.19
2023-01-09T11:46:07.009Z,96439.31
2023-01-09T11:48:35.566Z,96445.88
2023-01-09T11:51:06.740Z,96444.94
2023-01-09T11:53:48.445Z,96445.19
2023-01-09T11:56:17.151Z,96442.78
2023-01-09T11:58:44.105Z,96441.16
2023-01-09T12:01:45.550Z,96432.69
2023-01-09T12:04:25.003Z,96442.50
2023-01-09T12:07:25.193Z,96440.50
2023-01-09T12:10:20.131Z,96441.06
2023-01-09T12:13:02.513Z,96432.47
2023-01-09T12:15:33.457Z,96434.03
2023-01-09T12:18:31.111Z,96437.88
2023-01-09T12:21:26.816Z,96453.78
2023-01-09T12:24:03.200Z,96429.66
2023-01-09T12:26:54.478Z,96441.38
2023-01-09T12:29:50.039Z,96462.38
2023-01-09T12:32:46.818Z,96446.78
2023-01-09T12:35:40.974Z,96449.69
2023-01-09T12:38:25.894Z,96462.53
2023-01-09T12:41:09.534Z,96466.84
2023-01-09T12:44:08.508Z,96476.94
2023-01-09T12:46:44.892Z,96472.53
2023-01-09T12:49:28.041Z,96483.81
2023-01-09T12:52:10.797Z,96462.16
2023-01-09T12:54:45.770Z,96454.47
2023-01-09T12:57:25.180Z,96472.25
2023-01-09T13:00:00.308Z,96464.06
2023-01-09T13:02:42.931Z,96453.00
2023-01-09T13:05:18.125Z,96450.56
2023-01-09T13:07:47.861Z,96441.13
2023-01-09T13:10:22.518Z,96442.03
2023-01-09T13:12:50.848Z,96441.56
2023-01-09T13:15:35.793Z,96426.63
2023-01-09T13:18:20.916Z,96427.28
2023-01-09T13:20:56.708Z,96423.97
2023-01-09T13:23:46.876Z,96429.16
2023-01-09T13:26:22.122Z,96435.78
2023-01-09T13:28:54.866Z,96441.47
2023-01-09T13:31:37.702Z,96455.81
2023-01-09T13:36:55.575Z,96474.22
2023-01-09T13:39:32.325Z,96468.81
2023-01-09T13:42:23.899Z,96467.34
2023-01-09T13:44:55.050Z,96483.84
2023-01-09T13:47:28.739Z,96466.69
2023-01-09T13:52:24.370Z,96483.38
2023-01-09T13:54:58.158Z,96485.03
2023-01-09T13:57:29.787Z,96492.38
2023-01-09T14:00:17.743Z,96502.53
2023-01-09T14:02:46.629Z,96510.59
2023-01-09T14:05:37.625Z,96510.06
2023-01-09T14:08:14.767Z,96497.44
2023-01-09T14:10:44.723Z,96506.06
2023-01-09T14:13:20.942Z,96514.34
2023-01-09T14:15:49.906Z,96511.78
2023-01-09T14:18:31.930Z,96514.34
2023-01-09T14:21:04.482Z,96520.94
2023-01-09T14:23:51.032Z,96529.94
2023-01-09T14:26:21.754Z,96515.06
2023-01-09T14:28:48.541Z,96521.38
2023-01-09T14:31:32.971Z,96533.28
2023-01-09T14:34:31.670Z,96546.53
2023-01-09T14:37:01.768Z,96541.50
2023-01-09T14:39:32.376Z,96563.66
2023-01-09T14:42:08.668Z,96525.09
2023-01-09T14:44:49.043Z,96577.19
2023-01-09T14:47:24.740Z,96583.91
2023-01-09T14:50:06.811Z,96573.13
2023-01-09T14:52:39.513Z,96583.56
2023-01-09T14:55:29.212Z,96575.47
2023-01-09T14:57:57.362Z,96603.31
2023-01-09T15:00:24.486Z,96612.38
2023-01-09T15:02:53.353Z,96599.16
2023-01-09T15:05:26.486Z,96611.56
2023-01-09T15:08:06.017Z,96623.38
2023-01-09T15:10:37.591Z,96632.59
2023-01-09T15:13:07.844Z,96593.41
2023-01-09T15:15:35.853Z,96638.25
2023-01-09T15:18:07.898Z,96643.50
2023-01-09T15:20:35.420Z,96648.38
2023-01-09T15:23:05.020Z,96648.59
2023-01-09T15:25:39.307Z,96650.75
2023-01-09T15:28:41.090Z,96651.03
2023-01-09T15:31:14.013Z,96659.75
2023-01-09T15:33:42.084Z,96637.03
2023-01-09T15:36:16.110Z,96665.53
2023-01-09T15:38:43.802Z,96651.47
2023-01-09T15:41:35.357Z,96653.44
2023-01-09T15:44:04.254Z,96661.66
2023-01-09T15:46:32.883Z,96664.91
2023-01-09T15:49:00.247Z,96664.28
2023-01-09T15:51:27.319Z,96668.88
2023-01-09T15:53:57.524Z,96679.53
2023-01-09T15:56:30.367Z,96677.78
2023-01-09T15:58:59.332Z,96683.03
2023-01-09T16:01:32.356Z,96694.34
2023-01-09T16:04:11.859Z,96690.75
2023-01-09T16:06:47.797Z,96703.06
2023-01-09T16:09:32.077Z,96703.13
2023-01-09T16:12:01.769Z,96665.16
2023-01-09T16:14:38.562Z,96692.84
2023-01-09T16:17:08.924Z,96709.81
2023-01-09T16:19:41.424Z,96700.97
2023-01-09T16:22:25.939Z,96692.84
2023-01-09T16:24:58.391Z,96685.13
2023-01-09T16:27:37.213Z,96673.69
2023-01-09T16:30:08.677Z,96663.16
2023-01-09T16:32:45.927Z,96643.25
2023-01-09T16:35:18.576Z,96660.78
2023-01-09T16:37:45.508Z,96649.31
2023-01-09T16:40:15.774Z,96645.16
2023-01-09T16:43:01.965Z,96628.66
2023-01-09T16:45:33.760Z,96604.97
2023-01-09T16:48:01.978Z,96594.22
2023-01-09T16:50:29.029Z,96598.19
2023-01-09T16:52:56.929Z,96561.94
2023-01-09T16:55:23.428Z,96542.84
2023-01-09T16:57:49.884Z,96509.63
2023-01-09T17:00:18.883Z,96519.38
2023-01-09T17:02:45.482Z,96486.16
2023-01-09T17:05:12.049Z,96486.34
2023-01-09T17:07:38.568Z,96478.19
2023-01-09T17:10:06.247Z,96465.44
2023-01-09T17:12:32.695Z,96465.38
2023-01-09T17:15:00.909Z,96469.19
2023-01-09T17:17:27.381Z,96483.66
2023-01-09T17:19:54.077Z,96494.00
2023-01-09T17:22:20.708Z,96509.91
2023-01-09T17:25:08.651Z,96516.00
2023-01-09T17:27:55.817Z,96511.94
2023-01-09T17:30:22.851Z,96506.69
2023-01-09T17:32:49.468Z,96511.78
2023-01-09T17:35:16.276Z,96522.78
2023-01-09T17:37:43.233Z,96511.78
2023-01-09T17:40:22.259Z,96519.00
2023-01-09T17:42:48.751Z,96515.41
2023-01-09T17:45:15.516Z,96521.13
2023-01-09T17:47:42.025Z,96523.41
2023-01-09T17:50:18.427Z,96524.53
2023-01-09T17:52:44.979Z,96517.81
2023-01-09T17:55:11.470Z,96525.56
2023-01-09T17:57:37.937Z,96531.47
2023-01-09T18:00:06.466Z,96540.81
2023-01-09T18:02:33.019Z,96537.69
2023-01-09T18:04:59.672Z,96549.00
2023-01-09T18:07:26.106Z,96546.06
2023-01-09T18:09:52.564Z,96554.56
2023-01-09T18:12:19.380Z,96529.84
2023-01-09T18:14:47.382Z,96556.03
2023-01-09T18:17:14.425Z,96547.53
2023-01-09T18:19:40.923Z,96551.16
2023-01-09T18:22:07.381Z,96541.47
2023-01-09T18:24:33.787Z,96545.59
2023-01-09T18:27:00.272Z,96559.16
2023-01-09T18:29:26.841Z,96541.66
2023-01-09T18:31:53.621Z,96556.38
2023-01-09T18:34:20.173Z,96566.84
2023-01-09T18:36:47.389Z,96551.78
2023-01-09T18:39:14.417Z,96539.66
2023-01-09T18:41:41.026Z,96564.22
2023-01-09T18:44:07.598Z,96579.25
2023-01-09T18:46:34.041Z,96547.03
2023-01-09T18:49:03.050Z,96571.41
2023-01-09T18:51:29.996Z,96580.25
2023-01-09T18:53:57.032Z,96586.44
2023-01-09T18:56:25.403Z,96583.81
2023-01-09T18:59:02.534Z,96585.47
2023-01-09T19:01:31.048Z,96566.81
2023-01-09T19:04:00.125Z,96581.88
2023-01-09T19:06:28.872Z,96582.00
2023-01-09T19:08:56.713Z,96595.63
2023-01-09T19:11:23.974Z,96597.41
2023-01-09T19:13:51.174Z,96599.53
2023-01-09T19:16:19.162Z,96608.38
2023-01-09T19:18:45.986Z,96607.25
2023-01-09T19:21:15.512Z,96602.84
2023-01-09T19:23:43.698Z,96617.56
2023-01-09T19:26:18.423Z,96610.03
2023-01-09T19:28:46.603Z,96612.50
2023-01-09T19:31:14.202Z,96613.00
2023-01-09T19:33:40.662Z,96614.66
2023-01-09T19:36:07.546Z,96611.72
2023-01-09T19:38:34.300Z,96616.97
2023-01-09T19:41:15.973Z,96628.25
2023-01-09T19:43:42.418Z,96630.38
2023-01-09T19:46:15.394Z,96639.88
2023-01-09T19:48:44.688Z,96637.59
2023-01-09T19:51:13.206Z,96660.19
2023-01-09T19:53:40.169Z,96650.53
2023-01-09T19:56:10.196Z,96630.34
2023-01-09T19:58:36.747Z,96662.16
2023-01-09T20:01:12.163Z,96658.53
2023-01-09T20:03:46.605Z,96644.78
2023-01-09T20:06:18.901Z,96700.47
2023-01-09T20:08:47.652Z,96709.03
2023-01-09T20:11:15.566Z,96713.09
2023-01-09T20:13:42.833Z,96726.34
2023-01-09T20:16:15.712Z,96722.78
2023-01-09T20:18:42.270Z,96710.00
2023-01-09T20:21:09.078Z,96738.50
2023-01-09T20:23:36.110Z,96753.56
2023-01-09T20:26:03.705Z,96756.31
2023-01-09T20:28:30.202Z,96766.16
2023-01-09T20:30:57.622Z,96775.19
2023-01-09T20:33:24.402Z,96777.97
2023-01-09T20:35:51.043Z,96778.16
2023-01-09T20:38:17.784Z,96793.25
2023-01-09T20:40:44.214Z,96796.53
2023-01-09T20:43:12.576Z,96800.44
2023-01-09T20:45:40.279Z,96829.13
2023-01-09T20:48:08.012Z,96837.78
2023-01-09T20:50:34.436Z,96826.13
2023-01-09T20:53:00.838Z,96846.13
2023-01-09T20:55:27.220Z,96848.94
2023-01-09T20:57:53.613Z,96842.38
2023-01-09T21:00:20.709Z,96846.81
2023-01-09T21:02:47.956Z,96851.75
2023-01-09T21:05:14.508Z,96851.88
2023-01-09T21:07:40.916Z,96863.03
2023-01-09T21:10:07.738Z,96857.31
2023-01-09T21:12:37.686Z,96865.66
2023-01-09T21:15:06.478Z,96883.00
2023-01-09T21:17:37.918Z,96882.69
2023-01-09T21:20:11.001Z,96876.09
2023-01-09T21:22:37.940Z,96888.88
2023-01-09T21:25:05.731Z,96890.22
2023-01-09T21:27:35.936Z,96895.75
2023-01-09T21:30:03.966Z,96895.44
2023-01-09T21:32:33.146Z,96899.25
2023-01-09T21:35:04.160Z,96920.34
2023-01-09T21:37:32.506Z,96902.31
2023-01-09T21:39:59.964Z,96912.84
2023-01-09T21:42:44.962Z,96939.66
2023-01-09T21:45:34.496Z,96928.84
2023-01-09T21:48:05.871Z,96928.69
2023-01-09T21:50:38.638Z,96915.03
2023-01-09T21:53:05.050Z,96933.38
2023-01-09T21:55:34.370Z,96958.03
2023-01-09T21:58:01.586Z,96950.31
2023-01-09T22:00:28.524Z,96959.06
2023-01-09T22:02:55.066Z,96965.25
2023-01-09T22:05:22.008Z,96975.75
2023-01-09T22:07:48.412Z,96976.44
2023-01-09T22:10:14.899Z,96976.22
2023-01-09T22:13:01.309Z,96981.34
2023-01-09T22:15:27.745Z,96983.31
2023-01-09T22:17:54.195Z,96987.22
2023-01-09T22:20:20.618Z,96995.75
2023-01-09T22:22:49.399Z,96953.31
2023-01-09T22:25:16.154Z,96980.94
2023-01-09T22:27:42.556Z,97015.81
2023-01-09T22:30:10.667Z,97027.31
2023-01-09T22:32:40.698Z,97026.78
2023-01-09T22:35:07.594Z,97041.38
2023-01-09T22:37:37.523Z,97046.31
2023-01-09T22:40:04.366Z,97048.59
2023-01-09T22:42:30.887Z,97055.97
2023-01-09T22:44:57.387Z,97065.97
2023-01-09T22:47:23.767Z,97039.34
2023-01-09T22:49:53.957Z,97057.13
2023-01-09T22:52:21.136Z,97072.84
2023-01-09T22:54:48.209Z,97071.31
2023-01-09T22:57:14.857Z,97088.41
2023-01-09T22:59:42.372Z,97094.47
2023-01-09T23:02:08.880Z,97096.41
2023-01-09T23:04:35.336Z,97100.72
2023-01-09T23:07:02.052Z,97098.78
2023-01-09T23:09:28.465Z,97104.00
2023-01-09T23:12:03.611Z,97113.38
2023-01-09T23:14:35.893Z,97115.84
2023-01-09T23:17:04.223Z,97105.97
2023-01-09T23:19:32.366Z,97120.28
2023-01-09T23:22:00.418Z,97126.66
2023-01-09T23:24:28.020Z,97118.09
2023-01-09T23:26:57.509Z,97125.59
2023-01-09T23:29:24.802Z,97112.66
2023-01-09T23:31:53.616Z,97117.38
2023-01-09T23:34:25.663Z,97113.47
2023-01-09T23:36:54.269Z,97105.56
2023-01-09T23:39:21.088Z,97087.25
2023-01-09T23:42:06.765Z,97092.81
2023-01-09T23:44:33.249Z,97067.53
2023-01-09T23:46:59.658Z,97065.63
2023-01-09T23:49:26.082Z,97069.56
2023-01-09T23:51:52.555Z,97058.06
2023-01-09T23:54:19.014Z,97055.84
2023-01-09T23:56:45.413Z,97058.41
2023-01-09T23:59:14.199Z,97051.44
